Flight Track Log - Related Links

Times and Time Zones

All times are in EST time to prevent confusion due to time zone crossing. See the UAL481 flight status page for this flight to view local times or setup timezone preferences in your user account.

Time Position Orientation Groundspeed Altitude Reporting Facility
EST Latitude Longitude Course Direction KTS MPH feet Rate Location/Type
Sun 10:52:53 PM 29.9511 -95.3425 248° West 183 211 1,100  Level Houston Center
Sun 10:53:42 PM 29.9378 -95.3803 248° West 213 245 2,200 1,756 Climbing Houston Center
Sun 10:54:15 PM 29.9642 -95.3939 336° Northwest 232 267 3,500 2,400 Climbing Houston Center
Sun 10:54:37 PM 29.9864 -95.4058 335° Northwest 238 274 4,400 2,361 Climbing Houston Center
Sun 10:55:16 PM 30.0253 -95.4222 340° North 234 269 5,900 2,700 Climbing Houston Center
Sun 10:56:17 PM 30.0975 -95.4553 338° Northwest 272 313 8,900 2,705 Climbing Houston Center
Sun 10:57:18 PM 30.1700 -95.4875 339° North 277 319 11,400 2,164 Climbing Houston Center
Sun 10:58:19 PM 30.2553 -95.5267 338° Northwest 321 369 13,300 1,967 Climbing Houston Center
Sun 10:59:20 PM 30.3492 -95.5672 340° North 349 402 15,400 2,164 Climbing Houston Center
Sun 11:00:21 PM 30.4497 -95.6136 338° Northwest 379 436 17,700 2,705 Climbing Houston Center
Sun 11:01:22 PM 30.5550 -95.6614 339° North 401 461 20,900 2,852 Climbing Houston Center
Sun 11:02:23 PM 30.6775 -95.7272 335° Northwest 405 466 23,500 2,607 Climbing Houston Center
Sun 11:03:24 PM 30.7747 -95.7786 336° Northwest 407 468 26,200 1,918 Climbing Houston Center
Sun 11:04:25 PM 30.8758 -95.8347 335° Northwest 402 463 27,400 934 Climbing Houston Center
Sun 11:05:26 PM 30.9842 -95.8939 335° Northwest 422 486 28,100 645 Climbing Houston Center
Sun 11:06:26 PM 31.1011 -95.9569 335° Northwest 451 519 28,700 992 Climbing Houston Center
Sun 11:07:27 PM 31.2294 -96.0106 340° North 477 549 30,100 1,377 Climbing Houston Center
Sun 11:08:28 PM 31.3578 -96.0589 342° North 482 555 31,500 1,426 Climbing Houston Center
Sun 11:09:29 PM 31.4853 -96.1078 342° North 480 552 33,000 1,426 Climbing Houston Center
Sun 11:10:30 PM 31.6103 -96.1564 342° North 473 544 34,400 1,450 Climbing Houston Center
Sun 11:11:29 PM 31.7294 -96.2008 342° North 455 524 35,900 800 Climbing Fort Worth Center
Sun 11:12:30 PM 31.8619 -96.2525 342° North 447 514 36,000 49 Climbing Fort Worth Center
Sun 11:13:32 PM 31.9789 -96.3008 341° North 446 513 36,000  Level Fort Worth Center
Sun 11:14:33 PM 32.0981 -96.3481 341° North 450 518 36,000  Level Fort Worth Center
Sun 11:15:34 PM 32.2097 -96.4075 336° Northwest 441 507 36,000  Level Fort Worth Center
Sun 11:16:35 PM 32.2922 -96.4989 317° Northwest 408 470 36,000  Level Fort Worth Center
Sun 11:17:36 PM 32.3728 -96.5903 316° Northwest 403 464 36,000  Level Fort Worth Center
Sun 11:18:37 PM 32.4550 -96.6822 317° Northwest 405 466 36,000  Level Fort Worth Center
Sun 11:19:38 PM 32.5353 -96.7742 316° Northwest 403 464 36,000  Level Fort Worth Center
Sun 11:20:39 PM 32.6153 -96.8656 316° Northwest 401 461 36,000  Level Fort Worth Center
Sun 11:21:40 PM 32.7119 -96.9758 316° Northwest 403 464 36,000  Level Fort Worth Center
Sun 11:22:41 PM 32.7917 -97.0675 316° Northwest 401 461 36,000  Level Fort Worth Center
Sun 11:23:42 PM 32.8692 -97.1561 316° Northwest 405 466 36,000  Level Fort Worth Center
Sun 11:24:43 PM 32.9475 -97.2517 314° West 402 463 36,000  Level Fort Worth Center
Sun 11:25:44 PM 33.0156 -97.3414 312° West 397 457 36,000  Level Fort Worth Center
Sun 11:26:45 PM 33.0919 -97.4369 314° West 396 456 36,000  Level Fort Worth Center
Sun 11:27:46 PM 33.1825 -97.5514 313° West 394 453 36,000  Level Fort Worth Center
Sun 11:28:47 PM 33.2567 -97.6475 313° West 395 455 36,000  Level Fort Worth Center
Sun 11:29:48 PM 33.3319 -97.7436 313° West 397 457 36,000  Level Fort Worth Center
Sun 11:30:49 PM 33.4081 -97.8397 314° West 397 457 36,000  Level Fort Worth Center
Sun 11:31:50 PM 33.4925 -97.9306 318° Northwest 407 468 36,000  Level Fort Worth Center
Sun 11:32:51 PM 33.5933 -98.0081 327° Northwest 429 494 36,000  Level Fort Worth Center
Sun 11:33:52 PM 33.6931 -98.0867 327° Northwest 429 494 36,000  Level Fort Worth Center
Sun 11:34:52 PM 33.7928 -98.1667 326° Northwest 432 497 36,000  Level Fort Worth Center
Sun 11:35:53 PM 33.8914 -98.2489 325° Northwest 431 496 36,000  Level Fort Worth Center
Sun 11:36:54 PM 33.9911 -98.3286 326° Northwest 431 496 36,000  Level Fort Worth Center
Sun 11:37:55 PM 34.0906 -98.4100 326° Northwest 432 497 36,000  Level Fort Worth Center
Sun 11:38:56 PM 34.2064 -98.5047 326° Northwest 435 501 36,000  Level Fort Worth Center
Sun 11:39:57 PM 34.2989 -98.5950 321° Northwest 428 493 36,000  Level Fort Worth Center
Sun 11:40:58 PM 34.3731 -98.7019 310° West 415 478 36,000  Level Fort Worth Center
Sun 11:41:58 PM 34.4472 -98.8097 310° West 413 475 36,000  Level Fort Worth Center
Sun 11:42:59 PM 34.5206 -98.9181 309° West 414 476 36,000  Level Fort Worth Center
Sun 11:44:00 PM 34.5936 -99.0272 309° West 413 475 36,000  Level Fort Worth Center
Sun 11:45:01 PM 34.6681 -99.1394 309° West 421 484 36,000  Level Fort Worth Center
Sun 11:46:02 PM 34.7431 -99.2500 310° West 421 484 36,000  Level Fort Worth Center
Sun 11:47:02 PM 34.8167 -99.3608 309° West 420 483 36,000  Level Fort Worth Center
Sun 11:48:03 PM 34.8919 -99.4711 310° West 420 483 36,000  Level Fort Worth Center
Sun 11:49:04 PM 34.9656 -99.5819 309° West 418 481 36,000  Level Fort Worth Center
Sun 11:50:05 PM 35.0400 -99.6936 309° West 419 482 36,000  Level Fort Worth Center
Sun 11:51:06 PM 35.1133 -99.8031 309° West 416 479 36,000  Level Fort Worth Center
Sun 11:52:20 PM 35.2006 -99.9364 309° West 416 479 36,000  Level Albuquerque Center
Sun 11:53:21 PM 35.2725 -100.0467 309° West 415 478 36,000  Level Albuquerque Center
Sun 11:54:22 PM 35.3458 -100.1561 309° West 413 475 36,000  Level Albuquerque Center
Sun 11:55:23 PM 35.4181 -100.2678 308° West 414 476 36,000  Level Albuquerque Center
Sun 11:56:24 PM 35.4906 -100.3808 308° West 416 479 36,000  Level Albuquerque Center
Sun 11:57:25 PM 35.5639 -100.4931 309° West 417 480 36,000  Level Albuquerque Center
Sun 11:58:26 PM 35.6331 -100.6044 307° West 414 476 36,000  Level Albuquerque Center
Sun 11:59:27 PM 35.7092 -100.7206 309° West 419 482 36,000  Level Albuquerque Center
Mon 12:00:28 AM 35.7814 -100.8344 308° West 421 484 36,000  Level Albuquerque Center
Mon 12:01:29 AM 35.8669 -100.9667 309° West 421 484 36,000  Level Albuquerque Center
Mon 12:02:30 AM 35.9383 -101.0783 308° West 419 482 36,000  Level Albuquerque Center
Mon 12:03:31 AM 36.0092 -101.1892 308° West 417 480 36,000  Level Albuquerque Center
Mon 12:04:32 AM 36.0803 -101.3022 308° West 417 480 36,000  Level Albuquerque Center
Mon 12:05:33 AM 36.1511 -101.4164 308° West 420 483 36,000  Level Albuquerque Center
Mon 12:06:34 AM 36.2228 -101.5289 308° West 419 482 36,000  Level Albuquerque Center
Mon 12:07:35 AM 36.2942 -101.6425 308° West 420 483 36,000  Level Albuquerque Center
Mon 12:08:36 AM 36.3653 -101.7572 308° West 421 484 36,000  Level Albuquerque Center
Mon 12:09:36 AM 36.4358 -101.8694 308° West 417 480 36,000  Level Albuquerque Center
Mon 12:10:37 AM 36.5200 -102.0050 308° West 416 479 36,000  Level Albuquerque Center
Mon 12:11:38 AM 36.5889 -102.1172 307° West 412 474 36,000  Level Albuquerque Center
Mon 12:12:39 AM 36.6572 -102.2283 307° West 407 468 36,000  Level Albuquerque Center
Mon 12:13:40 AM 36.7256 -102.3394 308° West 406 467 36,000  Level Albuquerque Center
Mon 12:14:41 AM 36.7931 -102.4508 307° West 405 466 36,000  Level Albuquerque Center
Mon 12:15:42 AM 36.8647 -102.5692 307° West 417 480 36,000  Level Albuquerque Center
Mon 12:16:42 AM 36.9322 -102.6772 308° West 416 479 36,000 -1,041 Level Albuquerque Center
Mon 12:17:43 AM 37.0100 -102.8039 308° West 412 474 33,900 -2,066 Descending Albuquerque Center
Mon 12:18:44 AM 37.0719 -102.9108 306° West 402 463 31,800 -1,918 Descending Albuquerque Center
Mon 12:19:45 AM 37.1344 -103.0142 307° West 391 450 30,000 -878 Descending Albuquerque Center
Mon 12:20:47 AM 37.2081 -103.1356 307° West 392 451 30,000  Level Albuquerque Center
Mon 12:21:47 AM 37.2694 -103.2381 307° West 387 445 30,000  Level Albuquerque Center
Mon 12:22:47 AM 37.3306 -103.3417 307° West 385 443 30,000  Level Albuquerque Center
Mon 12:23:45 AM 37.3908 -103.4431 307° West 383 441 30,000  Level Denver Center
Mon 12:24:46 AM 37.4617 -103.5628 307° West 385 443 30,000  Level Denver Center
Mon 12:25:47 AM 37.5228 -103.6653 307° West 384 442 30,000  Level Denver Center
Mon 12:26:48 AM 37.5836 -103.7711 306° West 390 449 30,000  Level Denver Center
Mon 12:27:49 AM 37.6550 -103.8925 307° West 392 451 30,000  Level Denver Center
Mon 12:28:50 AM 37.7156 -103.9975 306° West 392 451 30,000  Level Denver Center
Mon 12:29:51 AM 37.7858 -104.1214 306° West 393 452 30,000  Level Denver Center
Mon 12:30:52 AM 37.8469 -104.2283 306° West 394 453 30,000  Level Denver Center
Mon 12:31:53 AM 37.9194 -104.3514 307° West 391 450 30,000  Level Denver Center
Mon 12:32:55 AM 37.9811 -104.4589 306° West 393 452 30,000  Level Denver Center
Mon 12:33:56 AM 38.0422 -104.5647 306° West 390 449 30,000  Level Denver Center
Mon 12:34:57 AM 38.1131 -104.6861 307° West 385 443 30,000  Level Denver Center
Mon 12:35:58 AM 38.1725 -104.7908 306° West 383 441 30,000  Level Denver Center
Mon 12:36:59 AM 38.2319 -104.8956 306° West 382 440 30,000  Level Denver Center
Mon 12:38:00 AM 38.3008 -105.0175 306° West 380 437 30,000  Level Denver Center
Mon 12:39:01 AM 38.3597 -105.1233 305° West 381 438 30,000  Level Denver Center
Mon 12:40:02 AM 38.4236 -105.2344 306° West 388 447 30,000  Level Denver Center
Mon 12:41:03 AM 38.4869 -105.3483 305° West 392 451 30,000  Level Denver Center
Mon 12:42:04 AM 38.5497 -105.4631 305° West 393 452 30,000  Level Denver Center
Mon 12:43:05 AM 38.6150 -105.5797 306° West 401 461 30,000  Level Denver Center
Mon 12:44:06 AM 38.6803 -105.7008 305° West 410 472 30,000  Level Denver Center
Mon 12:45:07 AM 38.7467 -105.8189 306° West 408 470 30,000  Level Denver Center
Mon 12:46:08 AM 38.8253 -105.9608 305° West 408 470 30,000  Level Denver Center
Mon 12:47:09 AM 38.8906 -106.0811 305° West 410 472 30,000  Level Denver Center
Mon 12:48:10 AM 38.9508 -106.1928 305° West 410 472 30,000  Level Denver Center
Mon 12:49:11 AM 39.0256 -106.3294 305° West 416 479 30,000  Level Denver Center
Mon 12:50:12 AM 39.0861 -106.4428 305° West 406 467 30,000  Level Denver Center
Mon 12:51:13 AM 39.1481 -106.5564 305° West 404 465 30,000 1,082 Level Denver Center
Mon 12:52:14 AM 39.2183 -106.6864 305° West 398 458 32,200 1,869 Climbing Denver Center
Mon 12:53:15 AM 39.2761 -106.7942 305° West 384 442 33,800 885 Climbing Denver Center
Mon 12:54:16 AM 39.3308 -106.8994 304° West 371 427 34,000 98 Climbing Denver Center
Mon 12:55:17 AM 39.3981 -107.0247 305° West 376 433 34,000  Level Denver Center
Mon 12:56:18 AM 39.4569 -107.1344 305° West 383 441 34,000  Level Denver Center
Mon 12:57:19 AM 39.5128 -107.2428 304° West 379 436 34,000  Level Denver Center
Mon 12:58:20 AM 39.5803 -107.3697 305° West 383 441 34,000  Level Denver Center
Mon 12:59:20 AM 39.6372 -107.4792 304° West 383 441 34,000 645 Level Denver Center
Mon 01:00:21 AM 39.7028 -107.6047 304° West 377 434 35,300 984 Climbing Denver Center
Mon 01:01:22 AM 39.7603 -107.7114 305° West 375 432 36,000 344 Climbing Denver Center
Mon 01:02:23 AM 39.8164 -107.8200 304° West 377 434 36,000  Level Denver Center
Mon 01:03:24 AM 39.8794 -107.9461 303° West 374 430 36,000  Level Denver Center
Mon 01:04:25 AM 39.9356 -108.0542 304° West 377 434 36,000  Level Denver Center
Mon 01:05:26 AM 39.9906 -108.1622 304° West 376 433 36,000  Level Denver Center
Mon 01:06:27 AM 40.0558 -108.2897 304° West 379 436 36,000  Level Denver Center
Mon 01:07:27 AM 40.1106 -108.3983 303° West 377 434 36,000  Level Denver Center
Mon 01:07:58 AM 40.1375 -108.4533 303° West 378 435 36,000  Level Salt Lake Center
Mon 01:08:59 AM 40.2017 -108.5794 304° West 375 432 36,000  Level Salt Lake Center
Mon 01:09:29 AM 40.2297 -108.6333 304° West 375 432 36,000  Level Denver Center
Mon 01:10:30 AM 40.2839 -108.7394 304° West 370 426 36,000  Level Denver Center
Mon 01:11:30 AM 40.3267 -108.8294 302° West 367 422 36,000  Level Denver Center
Mon 01:12:01 AM 40.3711 -108.9178 303° West 365 420 36,000  Level Salt Lake Center
Mon 01:13:02 AM 40.4231 -109.0228 303° West 361 415 36,000  Level Salt Lake Center
Mon 01:14:03 AM 40.4753 -109.1267 303° West 358 412 36,000  Level Salt Lake Center
Mon 01:15:04 AM 40.5369 -109.2508 303° West 364 419 36,000 246 Level Salt Lake Center
Mon 01:16:05 AM 40.5894 -109.3603 302° West 368 423 36,500 689 Climbing Salt Lake Center
Mon 01:17:06 AM 40.6531 -109.4878 303° West 373 429 37,400 744 Climbing Salt Lake Center
Mon 01:18:06 AM 40.7078 -109.5992 303° West 378 435 38,000 298 Climbing Salt Lake Center
Mon 01:19:07 AM 40.7628 -109.7114 303° West 381 438 38,000  Level Salt Lake Center
Mon 01:20:08 AM 40.8275 -109.8444 303° West 385 443 38,000  Level Salt Lake Center
Mon 01:21:09 AM 40.8853 -109.9644 303° West 384 442 38,000  Level Salt Lake Center
Mon 01:22:10 AM 40.9381 -110.0747 302° West 372 428 38,000  Level Salt Lake Center
Mon 01:23:10 AM 40.9911 -110.1836 303° West 368 423 38,000  Level Salt Lake Center
Mon 01:24:11 AM 41.0531 -110.3111 303° West 368 423 38,000  Level Salt Lake Center
Mon 01:25:12 AM 41.1042 -110.4200 302° West 365 420 38,000  Level Salt Lake Center
Mon 01:26:13 AM 41.1572 -110.5308 302° West 370 426 38,000  Level Salt Lake Center
Mon 01:27:14 AM 41.2175 -110.6594 302° West 368 423 38,000  Level Salt Lake Center
Mon 01:28:15 AM 41.2694 -110.7722 302° West 372 428 38,000  Level Salt Lake Center
Mon 01:29:15 AM 41.3231 -110.8856 302° West 377 434 38,000  Level Salt Lake Center
Mon 01:30:16 AM 41.3833 -111.0142 302° West 379 436 38,000  Level Salt Lake Center
Mon 01:31:17 AM 41.4389 -111.1353 301° West 384 442 38,000  Level Salt Lake Center
Mon 01:32:18 AM 41.4958 -111.2556 302° West 387 445 38,000  Level Salt Lake Center
Mon 01:33:18 AM 41.5522 -111.3775 302° West 388 447 38,000  Level Salt Lake Center
Mon 01:34:19 AM 41.6075 -111.4989 301° West 386 444 38,000  Level Salt Lake Center
Mon 01:35:20 AM 41.6611 -111.6183 301° West 380 437 38,000  Level Salt Lake Center
Mon 01:36:21 AM 41.7169 -111.7372 302° West 380 437 38,000  Level Salt Lake Center
Mon 01:37:21 AM 41.7711 -111.8572 301° West 379 436 38,000  Level Salt Lake Center
Mon 01:38:22 AM 41.8244 -111.9761 301° West 376 433 38,000  Level Salt Lake Center
Mon 01:39:23 AM 41.8775 -112.0950 301° West 374 430 38,000  Level Salt Lake Center
Mon 01:40:23 AM 41.9414 -112.2353 302° West 370 426 38,000  Level Salt Lake Center
Mon 01:41:24 AM 41.9947 -112.3525 302° West 369 425 38,000  Level Salt Lake Center
Mon 01:42:25 AM 42.0481 -112.4703 301° West 370 426 38,000  Level Salt Lake Center
Mon 01:43:26 AM 42.0994 -112.5889 300° West 369 425 38,000  Level Salt Lake Center
Mon 01:44:26 AM 42.1522 -112.7078 301° West 371 427 38,000  Level Salt Lake Center
Mon 01:45:27 AM 42.2056 -112.8258 301° West 372 428 38,000  Level Salt Lake Center
Mon 01:46:27 AM 42.2575 -112.9450 301° West 371 427 38,000  Level Salt Lake Center
Mon 01:47:28 AM 42.3103 -113.0656 301° West 372 428 38,000  Level Salt Lake Center
Mon 01:48:29 AM 42.3622 -113.1856 300° West 372 428 38,000  Level Salt Lake Center
Mon 01:49:29 AM 42.4142 -113.3056 300° West 371 427 38,000  Level Salt Lake Center
Mon 01:50:30 AM 42.4664 -113.4253 301° West 369 425 38,000  Level Salt Lake Center
Mon 01:51:31 AM 42.5181 -113.5458 300° West 371 427 38,000  Level Salt Lake Center
Mon 01:52:31 AM 42.5686 -113.6672 300° West 372 428 38,000  Level Salt Lake Center
Mon 01:53:32 AM 42.6200 -113.7894 300° West 373 429 38,000  Level Salt Lake Center
Mon 01:54:33 AM 42.6703 -113.9150 299° West 381 438 38,000  Level Salt Lake Center
Mon 01:55:33 AM 42.7208 -114.0353 300° West 372 428 38,000  Level Salt Lake Center
Mon 01:56:34 AM 42.7828 -114.1808 300° West 371 427 38,000  Level Salt Lake Center
Mon 01:57:35 AM 42.8336 -114.3025 300° West 371 427 38,000  Level Salt Lake Center
Mon 01:58:38 AM 42.8842 -114.4247 299° West 372 428 38,000  Level Salt Lake Center
Mon 01:59:38 AM 42.9325 -114.5322 302° West 371 427 38,000  Level Salt Lake Center
Mon 02:00:39 AM 42.9839 -114.6544 300° West 371 427 38,000  Level Salt Lake Center
Mon 02:01:40 AM 43.0344 -114.7764 300° West 369 425 38,000  Level Salt Lake Center
Mon 02:02:40 AM 43.0956 -114.9258 299° West 376 433 38,000  Level Salt Lake Center
Mon 02:03:41 AM 43.1467 -115.0500 299° West 375 432 38,000  Level Salt Lake Center
Mon 02:04:41 AM 43.1969 -115.1753 299° West 375 432 38,000  Level Salt Lake Center
Mon 02:05:42 AM 43.2464 -115.3000 299° West 373 429 38,000  Level Salt Lake Center
Mon 02:06:42 AM 43.2975 -115.4258 299° West 376 433 38,000  Level Salt Lake Center
Mon 02:07:43 AM 43.3472 -115.5522 298° West 376 433 38,000  Level Salt Lake Center
Mon 02:08:44 AM 43.3969 -115.6783 299° West 376 433 38,000  Level Salt Lake Center
Mon 02:09:44 AM 43.4472 -115.8064 298° West 379 436 38,000  Level Salt Lake Center
Mon 02:10:45 AM 43.4964 -115.9336 298° West 377 434 38,000  Level Salt Lake Center
Mon 02:11:45 AM 43.5467 -116.0608 299° West 377 434 38,000  Level Salt Lake Center
Mon 02:12:46 AM 43.5958 -116.1875 298° West 374 430 38,000  Level Salt Lake Center
Mon 02:13:47 AM 43.6456 -116.3144 298° West 375 432 38,000  Level Salt Lake Center
Mon 02:14:47 AM 43.6953 -116.4417 298° West 375 432 38,000  Level Salt Lake Center
Mon 02:15:48 AM 43.7439 -116.5689 298° West 374 430 38,000  Level Salt Lake Center
Mon 02:16:48 AM 43.7928 -116.6964 298° West 374 430 38,000  Level Salt Lake Center
Mon 02:17:49 AM 43.8422 -116.8231 298° West 373 429 38,000  Level Salt Lake Center
Mon 02:18:49 AM 43.8908 -116.9494 298° West 373 429 38,000  Level Salt Lake Center
Mon 02:19:50 AM 43.9403 -117.0758 299° West 372 428 38,000  Level Salt Lake Center
Mon 02:20:51 AM 43.9875 -117.2025 297° West 371 427 38,000  Level Salt Lake Center
Mon 02:21:51 AM 44.0364 -117.3292 298° West 372 428 38,000  Level Salt Lake Center
Mon 02:22:52 AM 44.0842 -117.4558 298° West 370 426 38,000  Level Salt Lake Center
Mon 02:23:52 AM 44.1317 -117.5831 298° West 371 427 38,000  Level Salt Lake Center
Mon 02:24:53 AM 44.1778 -117.7125 296° West 372 428 38,000  Level Salt Lake Center
Mon 02:25:53 AM 44.2242 -117.8406 297° West 371 427 38,000  Level Salt Lake Center
Mon 02:26:54 AM 44.2697 -117.9694 296° West 370 426 38,000  Level Salt Lake Center
Mon 02:27:54 AM 44.3192 -118.0964 299° West 372 428 38,000  Level Salt Lake Center
Mon 02:28:55 AM 44.3675 -118.2264 298° West 376 433 38,000  Level Salt Lake Center
Mon 02:29:56 AM 44.4147 -118.3558 297° West 375 432 38,000  Level Salt Lake Center
Mon 02:30:56 AM 44.4667 -118.5017 297° West 379 436 38,000  Level Salt Lake Center
Mon 02:31:57 AM 44.5142 -118.6322 297° West 378 435 38,000  Level Salt Lake Center
Mon 02:32:57 AM 44.5614 -118.7633 297° West 378 435 38,000  Level Salt Lake Center
Mon 02:33:58 AM 44.6075 -118.8942 296° West 376 433 38,000  Level Salt Lake Center
Mon 02:34:58 AM 44.6542 -119.0258 297° West 377 434 38,000  Level Salt Lake Center
Mon 02:35:59 AM 44.7000 -119.1578 296° West 377 434 38,000  Level Salt Lake Center
Mon 02:36:59 AM 44.7442 -119.2883 296° West 373 429 38,000  Level Salt Lake Center
Mon 02:38:00 AM 44.7906 -119.4206 296° West 377 434 38,000  Level Salt Lake Center
Mon 02:39:00 AM 44.8361 -119.5525 296° West 375 432 38,000  Level Salt Lake Center
Mon 02:40:01 AM 44.8814 -119.6853 296° West 376 433 38,000  Level Salt Lake Center
Mon 02:41:01 AM 44.9267 -119.8150 296° West 372 428 38,000  Level Salt Lake Center
Mon 02:42:25 AM 44.9975 -120.0186 296° West 374 430 38,000  Level Seattle Center
Mon 02:43:26 AM 45.0394 -120.1442 295° West 374 430 38,000  Level Seattle Center
Mon 02:44:26 AM 45.0839 -120.2761 296° West 372 428 38,000  Level Seattle Center
Mon 02:45:26 AM 45.1281 -120.4094 295° West 374 430 38,000 -198 Level Seattle Center
Mon 02:46:27 AM 45.1711 -120.5369 296° West 367 422 37,600 -1,488 Descending Seattle Center
Mon 02:47:27 AM 45.2189 -120.6581 299° West 354 407 35,000 -2,700 Descending Seattle Center
Mon 02:48:27 AM 45.2708 -120.7931 299° West 379 436 32,200 -2,826 Descending Seattle Center
Mon 02:49:28 AM 45.3236 -120.9306 299° West 393 452 29,300 -2,876 Descending Seattle Center
Mon 02:50:28 AM 45.3764 -121.0686 299° West 397 457 26,400 -2,850 Descending Seattle Center
Mon 02:51:28 AM 45.4275 -121.2036 298° West 393 452 23,600 -2,700 Descending Seattle Center
Mon 02:52:28 AM 45.4572 -121.3475 286° West 382 440 21,000 -2,703 Descending Seattle Center
Mon 02:52:59 AM 45.4731 -121.4375 284° West 370 426 19,500 -2,656 Descending Seattle Center
Mon 02:53:29 AM 45.4842 -121.4892 287° West 376 433 18,300 -3,000 Descending Seattle Center
Mon 02:53:41 AM 45.4933 -121.5339 286° West 365 420 17,400 -2,900 Descending Seattle Center
Mon 02:54:29 AM 45.5158 -121.6431 286° West 378 435 15,400 -2,262 Descending Seattle Center
Mon 02:54:42 AM 45.5214 -121.6764 283° West 371 427 15,100 -1,000 Descending Seattle Center
Mon 02:55:29 AM 45.5347 -121.7869 280° West 343 395 14,400 -900 Descending Seattle Center
Mon 02:55:42 AM 45.5336 -121.8072 266° West 326 375 14,200 -1,100 Descending Seattle Center
Mon 02:56:29 AM 45.5372 -121.9119 273° West 321 369 13,300 -1,082 Descending Seattle Center
Mon 02:56:43 AM 45.5381 -121.9322 273° West 312 359 13,100 -1,082 Descending Seattle Center
Mon 02:57:30 AM 45.5558 -122.0350 284° West 320 368 12,200 -1,180 Descending Seattle Center
Mon 02:57:44 AM 45.5606 -122.0619 284° West 317 365 11,900 -1,100 Descending Seattle Center
Mon 02:58:30 AM 45.5811 -122.1542 288° West 315 362 11,100 -1,100 Descending Seattle Center
Mon 02:58:44 AM 45.5853 -122.1814 282° West 312 359 10,800 -1,000 Descending Seattle Center
Mon 02:59:30 AM 45.6042 -122.2647 288° West 293 337 10,100 -982 Descending Seattle Center
Mon 02:59:39 AM 45.6056 -122.2811 277° West 288 331 9,900 -1,475 Descending Seattle Center
Mon 03:00:31 AM 45.6253 -122.3697 288° West 279 321 8,600 -1,500 Descending Seattle Center
Mon 03:00:39 AM 45.6272 -122.3867 279° West 273 314 8,400 -800 Descending Seattle Center
Mon 03:01:31 AM 45.6464 -122.4717 288° West 270 311 7,800 -787 Descending Seattle Center
Mon 03:01:40 AM 45.6514 -122.4847 299° West 261 300 7,600 -1,300 Descending Seattle Center
Mon 03:02:31 AM 45.6775 -122.5581 297° West 249 287 6,500 -1,222 Descending Seattle Center
Mon 03:02:34 AM 45.6786 -122.5661 281° West 244 281 6,500 -1,200 Level Seattle Center
Mon 03:03:31 AM 45.7044 -122.6478 294° West 248 285 5,300 -1,377 Descending Seattle Center
Mon 03:03:35 AM 45.7050 -122.6544 277° West 245 282 5,100 -1,967 Descending Seattle Center
Mon 03:04:32 AM 45.7317 -122.7319 296° West 236 272 3,300 -1,791 Descending Seattle Center
Mon 03:04:42 AM 45.7372 -122.7494 294° West 230 265 3,100 -300 Descending Seattle Center
Mon 03:05:32 AM 45.7236 -122.8003 249° West 188 216 3,000 -100 Descending Seattle Center
Mon 03:05:42 AM 45.7156 -122.8047 201° Southwest 178 205 3,000  Level Seattle Center
Mon 03:06:32 AM 45.6758 -122.8028 178° South 200 230 3,000 -98 Level Seattle Center
Mon 03:06:43 AM 45.6706 -122.7953 135° Southeast 187 215 2,900 -500 Descending Seattle Center
Mon 03:07:32 AM 45.6514 -122.7425 117° Southeast 178 205 2,500 -492 Descending Seattle Center
Mon 03:07:44 AM 45.6472 -122.7336 124° Southeast 174 200 2,400 -885 Descending Seattle Center
Mon 03:08:33 AM 45.6292 -122.6842 118° Southeast 169 194 1,600 -900 Descending Seattle Center
Mon 03:08:44 AM 45.6253 -122.6778 131° Southeast 162 186 1,500 -800 Descending Seattle Center
Mon 03:09:33 AM 45.6103 -122.6375 118° Southeast 137 158 800 -787 Descending Seattle Center
Mon 03:09:45 AM 45.6069 -122.6297 121° Southeast 127 146 700 -700 Descending Seattle Center
Mon 03:10:33 AM 45.5928 -122.5919 118° Southeast 130 150 100 -750 Descending Seattle Center

Login

Don't have an account? Register now (free) for customized features, flight alerts, and more!